首页
METAR-TAF:

METAR-TAF

机场 :

伦敦绍森德机场

伦敦Southend, 英格兰

纬度: 51-34N, 经度: 000-42E, 海拔: 15米

当前天气观测

该预报发布于34分钟前的01:20 UTC
静风
温度 3°C
湿度 100%
气压 1009 hPa
能见度10公里或以上
1500米以下无云,无积雨云

METAR: EGMC 170120Z 00000KT CAVOK 03/03 Q1009

时间: 01:54 (01:54 UTC)

预报

该预报发布于3小时和4分钟前的22:50 UTC
预报有效从17日的 00点(UTC)到 17日的 09点(UTC)
风速3节,风向多变
能见度10公里或以上
散云层高于4000英尺
短暂存在
从 17日的 00点(UTC)到 17日的 09点(UTC)
能見度: 4000
轻雾

TAF: EGMC 162250Z 1700/1709 VRB03KT 9999 SCT040 TEMPO 1700/1709 4000 BR

超过4000个机场的气象观测和天气预报(METAR&TAF报告)。

可查询的气象台以黄色和红色小点在地图上表示。

将鼠标移到小点上方,可查看气象台名称。

然后点击查看天气观测和预报。

如需切换地图:点击带黑十字的绿色按钮放大地图;点击带横线的绿色按钮缩小地图;或者点击绿色箭头查看邻近地区的地图。


METAR-TAF: